Time;durP1;ratioP1;P1;durP2;ratioP2;P2;SDS_P1;SDS_P2;PMS_P1;PMS_P2;Temp;Humidity;BMP_temperature;BMP_pressure;BME280_temperature;BME280_humidity;BME280_pressure;Samples;Min_cycle;Max_cycle;Signal;HPM_P1;HPM_P2
2022/03/23 00:03:15;;;;;;;35.53;19.02;;;;;;;4.54;71.07;101740.94;20858876;28;20178;-67
2022/03/23 00:13:17;;;;;;;29.50;16.27;;;;;;;4.37;73.11;101739.56;20859264;28;20061;-67
2022/03/23 00:23:19;;;;;;;33.95;18.17;;;;;;;4.24;74.03;101743.47;20857440;28;20102;-68
2022/03/23 00:33:23;;;;;;;33.67;18.20;;;;;;;4.18;74.35;101732.94;20857486;28;20107;-68
2022/03/23 00:43:25;;;;;;;34.47;17.87;;;;;;;4.08;75.73;101738.66;20871871;28;20049;-69
2022/03/23 00:53:27;;;;;;;37.15;18.13;;;;;;;4.01;75.60;101745.34;20871613;28;20053;-68
2022/03/23 01:03:29;;;;;;;37.42;18.70;;;;;;;3.88;76.42;101742.28;20867792;28;20476;-69
2022/03/23 01:13:30;;;;;;;33.05;18.75;;;;;;;3.74;77.70;101750.50;20870577;28;20454;-67
2022/03/23 01:23:32;;;;;;;37.58;18.73;;;;;;;3.53;79.01;101748.03;20869842;28;20053;-67
2022/03/23 01:33:34;;;;;;;33.53;18.65;;;;;;;3.39;79.81;101753.56;20869586;28;20095;-69
2022/03/23 01:43:35;;;;;;;34.80;18.58;;;;;;;3.27;79.49;101752.31;20868545;28;20415;-68
2022/03/23 01:53:37;;;;;;;36.65;18.77;;;;;;;3.10;80.14;101761.16;20867950;28;20060;-68
2022/03/23 02:03:39;;;;;;;41.20;19.75;;;;;;;3.05;80.86;101758.41;20866821;28;20049;-68
2022/03/23 02:13:41;;;;;;;35.42;18.70;;;;;;;2.94;81.37;101756.28;20866876;28;20465;-67
2022/03/23 02:23:42;;;;;;;40.38;19.10;;;;;;;2.76;82.53;101762.50;20865011;28;20056;-67
2022/03/23 02:33:44;;;;;;;39.08;20.23;;;;;;;2.53;83.20;101765.91;20863593;28;20057;-68
2022/03/23 02:43:45;;;;;;;38.65;19.80;;;;;;;2.43;84.38;101768.97;20863816;28;20049;-68
2022/03/23 03:04:08;;;;;;;39.25;21.35;;;;;;;2.11;85.74;101773.75;20862931;28;20752;-66
2022/03/23 03:14:11;;;;;;;41.85;20.80;;;;;;;2.02;85.43;101778.53;20862569;28;20673;-67
2022/03/23 03:24:13;;;;;;;40.45;19.77;;;;;;;1.82;86.80;101775.13;20859886;28;20410;-67
2022/03/23 03:34:14;;;;;;;41.10;21.42;;;;;;;1.84;87.67;101782.94;20859483;28;20042;-67
2022/03/23 03:44:15;;;;;;;38.20;20.63;;;;;;;1.65;87.90;101797.66;20859455;28;20045;-67
2022/03/23 03:54:17;;;;;;;42.42;20.85;;;;;;;1.58;86.99;101800.78;20860945;28;20540;-67
2022/03/23 04:04:18;;;;;;;39.90;20.00;;;;;;;1.38;88.78;101796.44;20859098;28;20048;-66
2022/03/23 04:14:20;;;;;;;43.03;20.98;;;;;;;1.38;88.82;101804.19;20857997;28;20075;-67
2022/03/23 04:24:22;;;;;;;39.00;19.77;;;;;;;1.32;89.50;101803.94;20857668;28;20049;-67
2022/03/23 04:34:23;;;;;;;37.55;18.90;;;;;;;1.24;90.16;101819.94;20855220;28;20050;-66
2022/03/23 04:44:25;;;;;;;41.15;19.92;;;;;;;1.17;90.32;101825.66;20854913;28;20049;-68
2022/03/23 04:54:26;;;;;;;39.00;20.48;;;;;;;1.14;89.10;101835.81;20852488;28;20083;-67
2022/03/23 05:04:28;;;;;;;41.47;20.40;;;;;;;1.06;91.04;101844.91;20855872;28;20053;-68
2022/03/23 05:14:29;;;;;;;39.08;19.48;;;;;;;0.83;91.29;101855.84;20856809;28;20045;-69
2022/03/23 05:24:31;;;;;;;41.35;20.70;;;;;;;0.64;92.18;101857.56;20862517;28;20052;-68
2022/03/23 05:34:33;;;;;;;39.17;19.75;;;;;;;0.64;92.73;101870.44;20868984;28;20053;-68
2022/03/23 05:44:35;;;;;;;40.58;20.05;;;;;;;0.72;92.85;101874.28;20872355;28;20075;-67
2022/03/23 05:54:37;;;;;;;36.90;19.55;;;;;;;0.90;92.15;101883.69;20867928;28;20425;-68
2022/03/23 06:04:38;;;;;;;40.58;20.88;;;;;;;1.16;90.92;101878.06;20862646;28;20042;-67
2022/03/23 06:14:44;;;;;;;41.58;20.58;;;;;;;1.38;90.70;101891.94;20867612;28;20072;-66
2022/03/23 06:24:45;;;;;;;49.15;24.50;;;;;;;1.72;89.28;101881.41;20865026;28;20109;-68
2022/03/23 06:34:47;;;;;;;43.92;23.52;;;;;;;2.11;88.71;101890.03;20865203;28;20099;-68
2022/03/23 06:44:48;;;;;;;50.60;23.60;;;;;;;2.48;88.71;101896.69;20864126;28;20041;-68
2022/03/23 06:54:50;;;;;;;51.20;22.45;;;;;;;2.85;88.25;101903.38;20864370;28;20045;-68
2022/03/23 07:04:51;;;;;;;47.88;24.67;;;;;;;3.18;86.66;101907.28;20858899;28;20622;-66
2022/03/23 07:14:53;;;;;;;49.97;24.85;;;;;;;3.51;85.55;101911.97;20853004;28;20053;-67
2022/03/23 07:24:54;;;;;;;51.15;25.27;;;;;;;3.96;84.07;101912.75;20846073;28;20402;-67
2022/03/23 07:34:56;;;;;;;41.28;22.75;;;;;;;4.42;78.35;101926.44;20849176;28;20052;-67
2022/03/23 07:44:57;;;;;;;39.35;20.90;;;;;;;4.84;77.22;101930.44;20840092;28;20110;-67
2022/03/23 07:55:00;;;;;;;37.53;21.27;;;;;;;5.13;74.01;101928.75;20857808;28;20479;-68
2022/03/23 08:05:02;;;;;;;37.35;19.27;;;;;;;5.60;72.88;101931.88;20849183;28;20396;-68
2022/03/23 08:15:04;;;;;;;35.22;18.55;;;;;;;5.97;72.44;101932.09;20847282;28;20053;-67
2022/03/23 08:25:06;;;;;;;38.97;18.30;;;;;;;6.42;70.85;101928.13;20847512;28;20053;-67
2022/03/23 08:35:08;;;;;;;35.45;19.17;;;;;;;6.89;67.00;101933.59;20846414;28;20557;-67
2022/03/23 08:45:10;;;;;;;37.08;19.23;;;;;;;7.33;64.87;101928.56;20848912;28;20103;-68
2022/03/23 08:55:14;;;;;;;35.28;20.88;;;;;;;7.66;60.64;101922.28;20849985;28;20042;-67
2022/03/23 09:05:18;;;;;;;40.70;20.75;;;;;;;8.22;59.37;101919.91;20863408;28;20045;-65
2022/03/23 09:15:20;;;;;;;34.30;20.80;;;;;;;8.59;54.28;101904.94;20864313;28;20050;-68
2022/03/23 09:25:22;;;;;;;38.15;21.35;;;;;;;9.05;53.13;101905.63;20861806;28;20489;-67
2022/03/23 09:35:23;;;;;;;35.03;19.10;;;;;;;9.39;53.07;101899.13;20864383;28;20049;-68
2022/03/23 09:55:36;;;;;;;35.38;18.70;;;;;;;10.57;47.50;101880.38;20854799;28;20049;-67
2022/03/23 10:05:59;;;;;;;30.65;18.75;;;;;;;10.74;44.93;101875.25;20858873;28;20057;-68
2022/03/23 10:16:38;;;;;;;34.00;18.05;;;;;;;11.18;43.68;101869.44;20857293;28;20044;-68
2022/03/23 10:26:42;;;;;;;29.33;17.08;;;;;;;11.35;43.86;101866.88;20855944;28;20486;-68
2022/03/23 10:36:44;;;;;;;32.00;17.77;;;;;;;11.69;42.91;101857.38;20852692;28;20045;-67
2022/03/23 10:46:46;;;;;;;33.00;19.35;;;;;;;11.95;42.51;101845.25;20854927;28;20399;-67
2022/03/23 10:56:48;;;;;;;28.33;18.23;;;;;;;12.32;46.19;101856.66;20857115;28;20485;-68
2022/03/23 11:06:50;;;;;;;32.30;18.55;;;;;;;12.77;40.40;101830.34;20853017;28;20477;-68
2022/03/23 11:16:53;;;;;;;24.05;15.60;;;;;;;12.97;34.58;101812.78;20852628;28;20383;-71
2022/03/23 11:26:55;;;;;;;22.42;14.55;;;;;;;13.75;33.62;101801.03;20851985;28;20126;-68
2022/03/23 11:36:58;;;;;;;21.23;14.40;;;;;;;14.05;30.92;101779.78;20853338;28;20045;-68
2022/03/23 11:47:05;;;;;;;21.05;13.57;;;;;;;14.20;29.90;101772.63;20852446;28;20502;-68
2022/03/23 11:57:06;;;;;;;24.30;14.10;;;;;;;14.42;30.17;101753.09;20849018;28;20045;-68
2022/03/23 12:07:10;;;;;;;21.52;14.43;;;;;;;14.78;29.28;101748.34;20847789;28;20107;-68
2022/03/23 12:17:17;;;;;;;23.87;15.23;;;;;;;14.94;29.84;101718.25;20849201;28;20475;-66
2022/03/23 12:27:41;;;;;;;22.13;15.48;;;;;;;15.04;31.89;101709.34;20845210;28;20053;-67
2022/03/23 12:37:43;;;;;;;26.88;15.82;;;;;;;15.58;30.21;101692.75;20844722;28;20445;-67
2022/03/23 12:47:57;;;;;;;21.63;14.85;;;;;;;15.19;32.04;101683.63;20846330;28;20045;-67
2022/03/23 12:58:04;;;;;;;22.70;15.33;;;;;;;15.68;29.09;101672.38;20846297;28;20041;-68
2022/03/23 13:08:27;;;;;;;27.23;15.20;;;;;;;15.79;29.26;101663.34;20847140;28;20454;-68
2022/03/23 13:18:32;;;;;;;22.73;14.90;;;;;;;16.06;27.07;101648.81;20844918;28;20513;-67
2022/03/23 13:28:59;;;;;;;;;;;;;;;15.88;27.94;101639.44;20847060;28;20556;-68
2022/03/23 13:39:07;;;;;;;20.10;12.15;;;;;;;16.42;26.26;101625.19;20841017;28;19944;-67
2022/03/23 13:49:10;;;;;;;16.50;11.15;;;;;;;16.92;24.01;101618.00;20851135;28;20092;-67
2022/03/23 13:59:15;;;;;;;17.35;10.57;;;;;;;16.64;25.40;101610.63;20860725;28;20044;-66
2022/03/23 14:09:19;;;;;;;16.90;11.10;;;;;;;16.56;25.86;101601.13;20859670;28;20653;-66
2022/03/23 14:19:20;;;;;;;20.30;11.67;;;;;;;16.95;23.05;101585.28;20857011;28;20312;-66
2022/03/23 14:29:22;;;;;;;18.88;9.85;;;;;;;17.05;22.63;101574.44;20859405;28;20049;-66
2022/03/23 14:39:24;;;;;;;17.08;9.98;;;;;;;17.24;22.03;101566.06;20857637;28;20041;-66
2022/03/23 14:49:34;;;;;;;20.00;12.02;;;;;;;16.62;24.54;101556.03;20856780;28;20053;-66
2022/03/23 14:59:47;;;;;;;21.63;13.55;;;;;;;17.22;23.65;101542.28;20851572;28;20425;-67
2022/03/23 15:20:26;;;;;;;27.77;13.80;;;;;;;17.13;23.46;101524.88;20825944;28;20481;-66
2022/03/23 15:30:27;;;;;;;18.98;12.95;;;;;;;17.12;23.77;101522.25;20852173;28;20111;-67
2022/03/23 15:40:29;;;;;;;19.58;13.30;;;;;;;16.89;25.68;101520.19;20850436;28;20060;-67
2022/03/23 15:50:32;;;;;;;23.45;13.57;;;;;;;16.70;25.38;101513.53;20850517;28;20402;-66
2022/03/23 16:00:33;;;;;;;23.33;14.18;;;;;;;17.33;23.83;101507.59;20844845;28;20034;-66
2022/03/23 16:10:35;;;;;;;25.98;13.95;;;;;;;17.19;23.89;101500.00;20849570;28;20502;-68
2022/03/23 16:20:38;;;;;;;30.02;13.80;;;;;;;17.22;23.39;101497.31;20849483;28;20350;-66
2022/03/23 16:30:40;;;;;;;25.25;13.50;;;;;;;16.75;25.49;101511.69;20844653;28;20057;-67
2022/03/23 16:40:42;;;;;;;24.10;14.45;;;;;;;16.51;25.58;101507.81;20848622;28;20053;-69
2022/03/23 16:50:43;;;;;;;23.92;14.73;;;;;;;16.21;25.98;101515.50;20846654;28;20049;-67
2022/03/23 17:00:45;;;;;;;23.40;14.15;;;;;;;16.25;26.14;101518.97;20843875;28;20041;-69
2022/03/23 17:21:06;;;;;;;19.02;12.20;;;;;;;15.00;29.50;101525.66;20852819;28;20110;-68
2022/03/23 17:31:09;;;;;;;19.02;11.55;;;;;;;14.25;31.40;101533.72;20861575;28;20049;-68
2022/03/23 17:41:12;;;;;;;17.95;11.40;;;;;;;13.62;34.16;101542.34;20827726;28;20046;-70
2022/03/23 17:51:14;;;;;;;20.20;12.65;;;;;;;13.28;34.21;101544.41;20807865;28;20127;-67
2022/03/23 18:01:15;;;;;;;21.25;11.68;;;;;;;12.84;35.56;101545.59;20815436;28;20111;-68
2022/03/23 18:11:17;;;;;;;20.52;13.48;;;;;;;12.45;36.47;101562.44;20807157;28;20856;-69
2022/03/23 18:21:19;;;;;;;26.70;14.65;;;;;;;12.14;37.29;101556.47;20808518;28;20149;-68
2022/03/23 18:31:22;;;;;;;25.33;13.98;;;;;;;12.18;36.59;101563.44;20812317;28;20402;-67
2022/03/23 18:41:25;;;;;;;26.77;14.45;;;;;;;11.73;39.08;101576.63;20807825;28;20533;-68
2022/03/23 18:51:26;;;;;;;18.98;11.10;;;;;;;11.07;41.31;101582.78;20807184;28;20586;-68
2022/03/23 19:01:28;;;;;;;22.58;10.85;;;;;;;10.63;43.18;101601.88;20809553;28;20122;-68
2022/03/23 19:11:30;;;;;;;23.13;11.35;;;;;;;10.22;44.68;101595.59;20806892;28;20057;-69
2022/03/23 19:21:32;;;;;;;23.42;11.98;;;;;;;10.09;44.07;101603.38;20808311;28;20532;-70
2022/03/23 19:31:36;;;;;;;20.95;11.35;;;;;;;9.77;44.61;101594.47;20810391;28;20198;-68
2022/03/23 19:41:41;;;;;;;24.88;13.48;;;;;;;9.57;45.99;101605.63;20807117;28;20132;-67
2022/03/23 19:51:42;;;;;;;;;;;;;;;9.35;46.16;101602.88;20805961;28;20045;-67
2022/03/23 20:01:44;;;;;;;25.35;13.05;;;;;;;9.09;46.60;101610.44;20797403;28;20291;-68
2022/03/23 20:11:46;;;;;;;28.30;14.77;;;;;;;8.87;48.90;101606.75;20803235;28;20053;-66
2022/03/23 20:21:50;;;;;;;22.83;12.30;;;;;;;8.66;49.15;101604.78;20796424;28;20052;-68
2022/03/23 20:31:51;;;;;;;19.35;11.50;;;;;;;8.42;50.66;101604.47;20804824;28;20091;-70
2022/03/23 20:41:53;;;;;;;23.63;13.13;;;;;;;8.18;51.13;101613.72;20806083;28;20045;-67
2022/03/23 20:51:55;;;;;;;24.00;13.23;;;;;;;8.00;53.05;101612.56;20803475;28;20073;-67
2022/03/23 21:01:56;;;;;;;24.02;13.30;;;;;;;7.70;54.90;101616.47;20814464;28;20077;-67
2022/03/23 21:11:59;;;;;;;32.08;16.58;;;;;;;7.49;54.77;101622.25;20820697;28;20060;-67
2022/03/23 21:22:00;;;;;;;26.30;14.90;;;;;;;7.34;55.52;101617.66;20859811;28;20057;-67
2022/03/23 21:32:02;;;;;;;24.67;14.52;;;;;;;7.20;56.25;101620.00;20856530;28;20111;-67
2022/03/23 21:42:04;;;;;;;33.65;16.75;;;;;;;7.09;57.98;101623.25;20860370;28;20053;-68
2022/03/23 21:52:06;;;;;;;28.85;16.13;;;;;;;6.96;57.12;101621.31;20858482;28;20045;-67
2022/03/23 22:02:08;;;;;;;29.25;17.08;;;;;;;6.79;57.48;101620.97;20856801;28;20061;-67
2022/03/23 22:12:09;;;;;;;36.30;20.80;;;;;;;6.72;56.70;101624.31;20860028;28;20057;-67
2022/03/23 22:22:11;;;;;;;31.25;16.33;;;;;;;6.42;57.99;101631.53;20856660;28;20050;-69
2022/03/23 22:32:13;;;;;;;29.25;15.82;;;;;;;6.21;60.59;101625.00;20854625;28;20076;-68
2022/03/23 22:42:15;;;;;;;29.83;15.80;;;;;;;6.07;59.25;101622.09;20856881;28;20407;-68
2022/03/23 22:52:19;;;;;;;30.92;16.25;;;;;;;5.86;60.90;101633.72;20856600;28;20048;-68
2022/03/23 23:02:21;;;;;;;31.25;17.10;;;;;;;5.68;61.61;101622.88;20855915;28;20045;-69
2022/03/23 23:12:22;;;;;;;31.88;16.02;;;;;;;5.52;61.05;101616.47;20863668;28;20132;-68
2022/03/23 23:22:24;;;;;;;30.70;15.90;;;;;;;5.38;63.52;101616.09;20862073;28;20049;-69
2022/03/23 23:32:27;;;;;;;28.85;15.90;;;;;;;5.23;65.48;101605.34;20859998;28;20095;-69
2022/03/23 23:42:29;;;;;;;27.98;15.50;;;;;;;5.13;65.02;101611.16;20861348;28;20049;-69
2022/03/23 23:52:30;;;;;;;28.98;16.42;;;;;;;5.01;65.44;101600.44;20858828;28;20114;-68
